Capitol Logistics 360




KABE
Lehigh Valley International Airport
Allentown, Pennsylvania
KMHT
Manchester Airport
Manchester, New Hampshire

Activity Log

Date Flight Route Aircraft Duration
04/11/2021 CPX360 HNK MUCOW ROZZE2 B752 0h 55m
04/10/2021 CPX360 HNK MUCOW ROZZE2 B752 1h 09m

Route Details

Aircraft Information
Primary: Boeing 737-800BCF
Backup: Boeing 757-200SF
Route Data
Distance: 226nm
Duration: 0h 45m
Recm'd Route: HNK MUCOW ROZZE2
Origin Wx: KABE 180251Z 25003KT 10SM OVC070 08/03 A2984 RMK AO2 SLP106 T00780028 50007
Dest. Wx: KMHT 180253Z 33005KT 10SM OVC050 07/00 A2977 RMK AO2 SLP095 T00720000 50002
Notes: